Time;durP1;ratioP1;P1;durP2;ratioP2;P2;SDS_P1;SDS_P2;PMS_P1;PMS_P2;Temp;Humidity;BMP_temperature;BMP_pressure;BME280_temperature;BME280_humidity;BME280_pressure;Samples;Min_cycle;Max_cycle;Signal;HPM_P1;HPM_P2
2023/05/12 05:14:52;;;;;;;25.83;15.63;;;15.70;76.10;;;;;;4826036;24;20046;-74
2023/05/12 05:17:18;;;;;;;26.45;15.98;;;15.70;76.10;;;;;;4809510;29;20348;-74
2023/05/12 05:19:43;;;;;;;26.10;16.02;;;15.70;76.10;;;;;;4809548;29;20050;-77
2023/05/12 05:22:09;;;;;;;23.95;16.02;;;15.70;76.10;;;;;;4778881;29;20059;-77
2023/05/12 05:24:35;;;;;;;29.67;17.90;;;15.80;76.30;;;;;;4809504;29;20051;-76
2023/05/12 05:27:00;;;;;;;33.30;17.70;;;15.80;76.40;;;;;;4809386;29;20042;-75
2023/05/12 05:29:27;;;;;;;33.78;17.15;;;15.80;76.60;;;;;;4809551;29;20439;-72
2023/05/12 05:31:53;;;;;;;28.45;16.50;;;15.80;77.30;;;;;;4809973;29;20361;-72
2023/05/12 05:34:18;;;;;;;36.28;18.40;;;15.80;77.70;;;;;;4809568;29;20133;-70
2023/05/12 05:36:44;;;;;;;32.05;16.10;;;15.80;78.50;;;;;;4809480;29;20051;-71
2023/05/12 05:39:10;;;;;;;29.45;15.18;;;15.90;79.00;;;;;;4807700;29;20382;-71
2023/05/12 05:41:36;;;;;;;37.28;15.77;;;15.90;78.90;;;;;;4793860;29;20066;-72
2023/05/12 05:44:01;;;;;;;38.38;15.65;;;16.00;78.90;;;;;;4809126;29;20370;-72
2023/05/12 05:46:27;;;;;;;38.38;15.68;;;16.10;78.90;;;;;;4809299;29;20130;-72
2023/05/12 05:48:53;;;;;;;33.03;13.85;;;16.10;79.20;;;;;;4809181;29;20336;-72
2023/05/12 05:51:18;;;;;;;38.95;14.65;;;16.20;79.30;;;;;;4807271;29;20050;-73
2023/05/12 05:53:44;;;;;;;41.20;14.18;;;16.20;79.30;;;;;;4803230;29;20407;-74
2023/05/12 05:56:10;;;;;;;44.58;15.23;;;16.30;79.40;;;;;;4808860;29;20145;-74
2023/05/12 05:58:36;;;;;;;42.83;14.27;;;16.30;79.60;;;;;;4808604;29;20054;-73
2023/05/12 06:01:02;;;;;;;34.90;12.90;;;16.30;79.70;;;;;;4792828;29;20062;-72
2023/05/12 06:03:28;;;;;;;46.25;14.95;;;16.40;79.80;;;;;;4808748;29;20454;-73
2023/05/12 06:05:54;;;;;;;51.78;13.70;;;16.40;79.80;;;;;;4809056;29;20093;-73
2023/05/12 06:08:20;;;;;;;50.40;14.63;;;16.30;80.00;;;;;;4809245;29;20055;-75
2023/05/12 06:10:46;;;;;;;46.83;13.90;;;16.40;80.10;;;;;;4808664;29;20526;-73
2023/05/12 06:13:12;;;;;;;57.78;14.43;;;16.40;80.10;;;;;;4808424;29;20090;-74
2023/05/12 06:15:37;;;;;;;59.10;15.63;;;16.40;79.90;;;;;;4808772;29;20153;-72
2023/05/12 06:18:03;;;;;;;46.47;14.23;;;16.40;79.60;;;;;;4808610;29;20383;-72
2023/05/12 06:20:31;;;;;;;42.45;13.73;;;16.40;79.50;;;;;;4809308;29;20062;-73
2023/05/12 06:22:56;;;;;;;37.08;13.82;;;16.40;79.40;;;;;;4809265;29;20062;-73
2023/05/12 06:25:22;;;;;;;39.33;13.15;;;16.40;79.30;;;;;;4792822;29;20054;-72
2023/05/12 06:27:51;;;;;;;33.03;12.38;;;16.40;79.10;;;;;;4792115;29;20058;-72
2023/05/12 06:30:17;;;;;;;41.65;12.68;;;16.40;79.10;;;;;;4808573;29;20058;-73
2023/05/12 06:32:43;;;;;;;34.17;12.45;;;16.30;79.00;;;;;;4808541;29;20154;-72
2023/05/12 06:35:09;;;;;;;32.15;12.02;;;16.40;78.90;;;;;;4808637;29;20050;-71
2023/05/12 06:37:35;;;;;;;31.40;12.20;;;16.30;78.80;;;;;;4808501;29;20051;-74
2023/05/12 06:40:00;;;;;;;29.02;11.30;;;16.30;78.80;;;;;;4792442;29;20050;-72
2023/05/12 06:42:26;;;;;;;39.38;11.10;;;16.30;78.80;;;;;;4788423;29;20061;-73
2023/05/12 06:44:52;;;;;;;42.80;11.82;;;16.30;78.70;;;;;;4790227;29;20135;-71
2023/05/12 06:47:17;;;;;;;34.55;11.32;;;16.30;78.60;;;;;;4790774;29;20123;-72
2023/05/12 06:49:43;;;;;;;27.65;10.77;;;16.30;78.60;;;;;;4790190;30;20055;-72
2023/05/12 06:52:09;;;;;;;36.38;13.07;;;16.30;78.60;;;;;;4789910;29;20130;-71
2023/05/12 06:54:35;;;;;;;35.17;13.43;;;16.40;78.70;;;;;;4802333;29;20054;-72
2023/05/12 06:57:00;;;;;;;34.72;13.43;;;16.30;78.60;;;;;;4807746;29;20070;-71
2023/05/12 06:59:26;;;;;;;37.10;13.18;;;16.40;78.70;;;;;;4795838;29;20043;-71
2023/05/12 07:01:52;;;;;;;31.00;14.95;;;16.40;78.90;;;;;;4804846;29;20400;-72
2023/05/12 07:04:17;;;;;;;25.33;12.77;;;16.30;78.80;;;;;;4808186;29;20151;-73
2023/05/12 07:06:43;;;;;;;30.83;13.80;;;16.30;78.80;;;;;;4792021;29;20055;-73
2023/05/12 07:09:09;;;;;;;25.77;14.15;;;16.30;78.90;;;;;;4808411;29;20054;-73
2023/05/12 07:11:35;;;;;;;29.67;14.18;;;16.20;79.00;;;;;;4808498;29;20127;-71
2023/05/12 07:14:01;;;;;;;27.15;12.60;;;16.30;79.10;;;;;;4807484;29;20083;-72
2023/05/12 07:16:26;;;;;;;31.85;13.77;;;16.20;79.10;;;;;;4801884;29;20134;-74
2023/05/12 07:18:52;;;;;;;23.33;12.50;;;16.20;79.10;;;;;;4790651;30;20055;-73
2023/05/12 07:21:18;;;;;;;31.60;13.35;;;16.20;79.10;;;;;;4797593;29;20046;-70
2023/05/12 07:23:44;;;;;;;30.27;13.10;;;16.20;79.00;;;;;;4802824;29;20397;-70
2023/05/12 07:26:09;;;;;;;44.75;13.88;;;16.20;79.10;;;;;;4807784;29;20058;-69
2023/05/12 07:28:35;;;;;;;39.25;13.90;;;16.20;79.20;;;;;;4795429;29;20371;-70
2023/05/12 07:31:08;;;;;;;34.13;12.93;;;16.20;79.20;;;;;;4804377;29;20055;-70
2023/05/12 07:33:34;;;;;;;32.50;12.98;;;16.20;79.20;;;;;;4807974;29;20050;-69
2023/05/12 07:36:01;;;;;;;42.58;11.98;;;16.30;79.30;;;;;;4787485;30;20052;-71
2023/05/12 07:38:27;;;;;;;36.03;11.68;;;16.30;79.40;;;;;;4790444;29;20058;-71
2023/05/12 07:40:53;;;;;;;31.48;11.98;;;16.30;79.20;;;;;;4789431;30;20061;-73
2023/05/12 07:43:19;;;;;;;26.45;11.43;;;16.30;79.10;;;;;;4789372;30;20059;-73
2023/05/12 07:45:45;;;;;;;26.98;11.27;;;16.30;79.10;;;;;;4789832;30;20128;-71
2023/05/12 07:48:12;;;;;;;24.55;11.18;;;16.30;79.10;;;;;;4796592;29;20050;-72
2023/05/12 07:50:38;;;;;;;21.17;10.52;;;16.30;79.00;;;;;;4807540;29;20051;-71
2023/05/12 07:53:04;;;;;;;24.88;10.65;;;16.30;78.90;;;;;;4807397;29;20155;-72
2023/05/12 07:55:32;;;;;;;24.08;9.88;;;16.30;78.80;;;;;;4807731;29;20058;-73
2023/05/12 07:57:58;;;;;;;24.95;10.68;;;16.40;78.90;;;;;;4803215;29;20055;-72
2023/05/12 08:00:24;;;;;;;20.92;9.13;;;16.40;78.70;;;;;;4807519;29;20051;-72
2023/05/12 08:02:49;;;;;;;18.38;9.27;;;16.40;78.60;;;;;;4807566;29;20055;-72
2023/05/12 08:05:15;;;;;;;18.92;8.77;;;16.40;78.50;;;;;;4807450;29;20070;-72
2023/05/12 08:07:42;;;;;;;21.38;10.35;;;16.40;78.40;;;;;;4781812;29;20485;-73
2023/05/12 08:10:14;;;;;;;26.25;13.82;;;16.50;78.90;;;;;;4788294;29;20378;-73
2023/05/12 08:12:41;;;;;;;24.92;11.70;;;16.50;79.70;;;;;;4800051;29;20459;-77
2023/05/12 08:15:10;;;;;;;21.85;11.50;;;16.50;79.30;;;;;;4795758;29;20066;-77
2023/05/12 08:17:36;;;;;;;23.10;13.68;;;16.50;78.90;;;;;;4809424;29;20086;-76
2023/05/12 08:20:05;;;;;;;25.75;14.68;;;16.50;78.80;;;;;;4812435;29;20572;-76
2023/05/12 08:22:31;;;;;;;16.98;14.07;;;16.50;78.80;;;;;;4812238;29;20050;-73
2023/05/12 08:24:57;;;;;;;21.85;13.75;;;16.50;78.90;;;;;;4809534;29;20538;-72
2023/05/12 08:27:22;;;;;;;20.70;12.30;;;16.50;79.20;;;;;;4825320;29;20065;-73
2023/05/12 08:29:48;;;;;;;17.58;11.90;;;16.60;79.50;;;;;;4812878;29;20129;-72
2023/05/12 08:32:15;;;;;;;15.57;11.23;;;16.70;79.40;;;;;;4797283;29;20055;-72
2023/05/12 08:34:41;;;;;;;16.48;10.75;;;16.70;79.30;;;;;;4794549;29;20055;-76
2023/05/12 08:37:06;;;;;;;15.43;10.50;;;16.80;79.00;;;;;;4794639;29;20119;-73
2023/05/12 08:39:32;;;;;;;15.90;11.38;;;16.80;78.70;;;;;;4809924;29;20088;-74
2023/05/12 08:41:58;;;;;;;15.93;10.43;;;16.80;78.50;;;;;;4813318;29;20050;-74
2023/05/12 08:44:24;;;;;;;22.45;10.25;;;16.90;78.40;;;;;;4813049;29;20066;-72
2023/05/12 08:46:53;;;;;;;14.75;9.55;;;16.90;78.10;;;;;;4820286;29;20050;-73
2023/05/12 08:49:21;;;;;;;15.85;9.95;;;16.90;77.90;;;;;;4827826;29;20125;-74
2023/05/12 08:51:48;;;;;;;11.95;9.25;;;16.90;77.90;;;;;;4812318;29;20059;-73
2023/05/12 08:54:17;;;;;;;10.90;8.18;;;16.90;77.80;;;;;;4812072;29;20059;-75
2023/05/12 08:56:44;;;;;;;13.63;9.25;;;16.90;77.80;;;;;;4822986;29;20046;-74
2023/05/12 08:59:10;;;;;;;13.57;9.05;;;16.90;77.80;;;;;;4819048;29;20118;-73
2023/05/12 09:01:36;;;;;;;14.55;9.77;;;16.80;77.70;;;;;;4805489;29;20473;-71
2023/05/12 09:04:03;;;;;;;15.13;8.80;;;16.80;77.70;;;;;;4827310;29;20065;-74
2023/05/12 09:06:29;;;;;;;16.63;8.60;;;16.90;77.80;;;;;;4826843;29;20049;-73
2023/05/12 09:08:56;;;;;;;17.30;9.25;;;16.80;77.80;;;;;;4826281;29;20160;-73
2023/05/12 09:11:22;;;;;;;18.88;9.43;;;16.80;78.00;;;;;;4825014;29;20042;-74
2023/05/12 09:13:59;;;;;;;13.60;9.15;;;16.80;78.00;;;;;;4826980;29;20492;-77
2023/05/12 09:16:28;;;;;;;19.73;9.32;;;16.80;78.00;;;;;;4812027;29;20467;-76
2023/05/12 09:18:56;;;;;;;16.42;8.90;;;16.80;78.10;;;;;;4827840;29;20066;-75
2023/05/12 09:21:22;;;;;;;17.23;9.90;;;16.80;78.10;;;;;;4822147;29;20519;-75
2023/05/12 09:23:58;;;;;;;14.18;8.30;;;16.90;78.10;;;;;;4793963;29;20058;-74
2023/05/12 09:26:26;;;;;;;14.90;8.65;;;16.80;78.10;;;;;;4793065;29;20375;-76
2023/05/12 09:28:54;;;;;;;15.75;8.20;;;16.80;78.10;;;;;;4812004;29;20060;-73
2023/05/12 09:31:21;;;;;;;12.63;8.43;;;16.90;78.10;;;;;;4827180;29;20122;-75
2023/05/12 09:33:48;;;;;;;11.63;7.88;;;16.90;78.10;;;;;;4827561;29;20062;-76
2023/05/12 09:36:22;;;;;;;10.27;7.82;;;16.80;78.00;;;;;;4827297;29;20465;-76
2023/05/12 09:39:07;;;;;;;8.40;7.20;;;16.90;78.10;;;;;;4825086;29;20687;-75
2023/05/12 09:41:37;;;;;;;11.57;7.80;;;16.90;78.00;;;;;;4809175;29;20118;-76
2023/05/12 09:44:04;;;;;;;11.20;9.00;;;16.90;78.00;;;;;;4809504;29;20438;-74
2023/05/12 09:46:30;;;;;;;13.90;9.00;;;16.90;78.10;;;;;;4809490;29;20057;-74
2023/05/12 09:48:56;;;;;;;11.38;8.32;;;16.90;78.30;;;;;;4812307;29;20378;-77
2023/05/12 09:51:22;;;;;;;11.38;8.85;;;16.90;78.40;;;;;;4809297;29;20494;-76
2023/05/12 09:53:48;;;;;;;10.15;8.80;;;16.90;78.40;;;;;;4826882;29;20550;-74
2023/05/12 09:56:15;;;;;;;13.88;11.00;;;16.90;78.40;;;;;;4827082;29;20046;-76
2023/05/12 09:58:46;;;;;;;14.60;8.52;;;16.90;78.50;;;;;;4826645;29;20046;-74
2023/05/12 10:01:17;;;;;;;11.38;8.98;;;16.90;78.60;;;;;;4827808;29;20064;-76
2023/05/12 10:03:46;;;;;;;15.38;10.75;;;16.90;78.60;;;;;;4823538;29;20062;-74
2023/05/12 10:06:21;;;;;;;12.80;10.60;;;16.90;78.70;;;;;;4810847;29;20065;-76
2023/05/12 10:08:52;;;;;;;13.02;11.55;;;16.90;78.80;;;;;;4826374;29;20054;-76
2023/05/12 10:11:20;;;;;;;11.15;9.23;;;16.90;78.80;;;;;;4826955;29;20145;-77
2023/05/12 10:13:47;;;;;;;14.93;11.77;;;16.90;78.70;;;;;;4827375;29;20066;-76
2023/05/12 10:16:13;;;;;;;14.65;10.70;;;16.90;78.90;;;;;;4826301;29;20058;-74
2023/05/12 10:18:42;;;;;;;13.45;10.02;;;17.00;79.00;;;;;;4826755;29;20070;-72
2023/05/12 10:21:10;;;;;;;17.23;10.43;;;17.00;79.00;;;;;;4808290;29;20134;-74
2023/05/12 10:23:40;;;;;;;14.80;11.07;;;17.00;79.10;;;;;;4792698;29;20142;-73
2023/05/12 10:26:06;;;;;;;18.95;12.38;;;17.00;79.20;;;;;;4816986;29;20082;-72
2023/05/12 10:28:32;;;;;;;21.02;11.60;;;17.00;79.90;;;;;;4826903;29;20054;-73
2023/05/12 10:30:58;;;;;;;13.15;10.95;;;17.00;79.90;;;;;;4826560;29;20061;-71
2023/05/12 10:33:25;;;;;;;11.45;9.80;;;17.10;79.50;;;;;;4826780;29;20054;-72
2023/05/12 10:35:51;;;;;;;17.05;12.27;;;17.10;79.20;;;;;;4811126;29;20191;-71
2023/05/12 10:38:18;;;;;;;14.02;11.23;;;17.10;79.40;;;;;;4809141;29;20475;-72
2023/05/12 10:40:50;;;;;;;13.20;11.50;;;17.10;79.40;;;;;;4825450;29;20133;-71
2023/05/12 10:43:24;;;;;;;14.57;11.07;;;17.10;79.30;;;;;;4826602;29;20058;-71
2023/05/12 10:46:14;;;;;;;15.25;10.73;;;17.10;79.20;;;;;;4826725;29;20142;-71
2023/05/12 10:48:53;;;;;;;15.70;11.43;;;17.10;79.20;;;;;;4825918;29;20105;-73
2023/05/12 10:51:25;;;;;;;11.07;9.70;;;17.10;79.20;;;;;;4826589;29;20097;-73
2023/05/12 10:53:59;;;;;;;12.90;8.82;;;17.10;79.10;;;;;;4826724;29;20149;-72
2023/05/12 10:56:29;;;;;;;12.00;9.02;;;17.10;79.00;;;;;;4826995;29;20050;-72
2023/05/12 10:59:22;;;;;;;15.05;10.35;;;17.10;78.90;;;;;;4815883;29;20115;-71
2023/05/12 11:02:15;;;;;;;12.30;10.50;;;17.20;78.90;;;;;;4809114;29;20057;-72
2023/05/12 11:04:45;;;;;;;11.60;10.18;;;17.20;78.90;;;;;;4808317;29;20443;-72
2023/05/12 11:07:11;;;;;;;17.10;11.63;;;17.10;78.90;;;;;;4808455;29;20142;-72
2023/05/12 11:09:39;;;;;;;12.93;11.40;;;17.10;79.20;;;;;;4792718;29;20062;-72
2023/05/12 11:12:06;;;;;;;13.43;10.80;;;17.20;79.40;;;;;;4817802;29;20534;-72
2023/05/12 11:14:36;;;;;;;14.55;12.20;;;17.20;79.30;;;;;;4826092;29;20077;-72
2023/05/12 11:17:03;;;;;;;15.13;11.27;;;17.20;79.40;;;;;;4826053;29;20058;-72
2023/05/12 11:19:30;;;;;;;13.18;11.70;;;17.20;79.40;;;;;;4808398;29;20046;-72
2023/05/12 11:21:56;;;;;;;13.52;10.77;;;17.20;79.50;;;;;;4822628;29;20050;-71
2023/05/12 11:24:22;;;;;;;17.05;11.15;;;17.20;79.50;;;;;;4826197;29;20411;-72
2023/05/12 11:26:51;;;;;;;11.80;10.57;;;17.20;79.40;;;;;;4826665;29;20066;-71
2023/05/12 11:29:18;;;;;;;11.88;10.05;;;17.20;79.30;;;;;;4819239;29;20066;-72
2023/05/12 11:31:51;;;;;;;11.35;9.45;;;17.20;79.30;;;;;;4820619;29;20102;-73
2023/05/12 11:34:26;;;;;;;13.10;9.57;;;17.20;79.30;;;;;;4809635;29;20050;-72
2023/05/12 11:36:54;;;;;;;11.02;9.95;;;17.20;79.40;;;;;;4825293;29;20467;-71
2023/05/12 11:39:32;;;;;;;13.80;11.45;;;17.20;79.50;;;;;;4817209;29;20044;-72
2023/05/12 11:42:03;;;;;;;13.38;9.95;;;17.30;79.60;;;;;;4825600;29;20043;-75
2023/05/12 11:44:28;;;;;;;13.52;10.10;;;17.30;79.60;;;;;;4826029;29;20066;-74
2023/05/12 11:47:09;;;;;;;11.77;10.50;;;17.30;79.50;;;;;;4825667;29;20367;-75
2023/05/12 11:49:46;;;;;;;11.32;9.38;;;17.30;79.50;;;;;;4826531;29;20050;-75
2023/05/12 11:52:13;;;;;;;10.38;8.88;;;17.30;79.50;;;;;;4829118;29;20389;-75
2023/05/12 11:54:38;;;;;;;8.88;7.97;;;17.30;79.60;;;;;;4829111;29;20051;-76
2023/05/12 11:57:04;;;;;;;9.82;8.38;;;17.30;79.50;;;;;;4829083;29;20058;-76
2023/05/12 11:59:34;;;;;;;9.82;8.35;;;17.30;79.50;;;;;;4822562;29;20498;-75
2023/05/12 12:02:02;;;;;;;9.48;8.57;;;17.30;79.30;;;;;;4811580;29;20061;-77
2023/05/12 12:04:40;;;;;;;9.30;8.00;;;17.30;79.30;;;;;;4811209;29;20119;-76
2023/05/12 12:07:07;;;;;;;8.63;7.78;;;17.30;79.30;;;;;;4811043;29;20043;-77
2023/05/12 12:09:39;;;;;;;10.23;7.75;;;17.30;79.30;;;;;;4816571;29;20061;-75
2023/05/12 12:12:06;;;;;;;8.27;7.45;;;17.30;79.20;;;;;;4828480;29;20090;-76
2023/05/12 12:14:34;;;;;;;8.23;7.43;;;17.30;79.10;;;;;;4828709;29;20058;-75
2023/05/12 12:17:01;;;;;;;8.05;6.90;;;17.30;79.00;;;;;;4828926;29;20050;-78
2023/05/12 12:19:27;;;;;;;7.32;6.55;;;17.30;78.90;;;;;;4823390;29;20107;-75
2023/05/12 12:21:59;;;;;;;10.80;7.97;;;17.30;79.00;;;;;;4810868;29;20055;-75
2023/05/12 12:24:25;;;;;;;7.18;6.47;;;17.30;79.00;;;;;;4810987;29;20405;-74
2023/05/12 12:26:51;;;;;;;9.32;6.28;;;17.30;79.00;;;;;;4810794;29;20055;-77
2023/05/12 12:29:17;;;;;;;8.10;7.32;;;17.30;79.00;;;;;;4798259;29;20111;-76
2023/05/12 12:31:43;;;;;;;7.70;7.00;;;17.30;78.80;;;;;;4828359;29;20061;-77
2023/05/12 12:34:09;;;;;;;7.45;6.68;;;17.30;78.80;;;;;;4812795;29;20051;-74
2023/05/12 12:36:34;;;;;;;8.02;7.22;;;17.30;78.80;;;;;;4828970;29;20412;-74
2023/05/12 12:39:01;;;;;;;6.95;6.28;;;17.30;78.80;;;;;;4826703;29;20066;-76
2023/05/12 12:41:27;;;;;;;7.25;6.25;;;17.30;78.80;;;;;;4810232;29;20454;-75
2023/05/12 12:43:56;;;;;;;8.73;6.93;;;17.30;78.70;;;;;;4810545;29;20125;-79
2023/05/12 12:46:22;;;;;;;6.57;5.75;;;17.30;78.70;;;;;;4794596;29;20054;-79
2023/05/12 12:48:48;;;;;;;11.93;6.90;;;17.40;78.60;;;;;;4779417;29;20043;-76
2023/05/12 12:51:14;;;;;;;11.63;7.43;;;17.30;78.60;;;;;;4816199;29;20043;-76
2023/05/12 12:53:42;;;;;;;16.92;7.85;;;17.30;79.80;;;;;;4827941;29;20061;-77
2023/05/12 12:56:08;;;;;;;11.05;6.90;;;17.40;79.80;;;;;;4827681;29;20058;-76
2023/05/12 12:58:33;;;;;;;14.23;7.00;;;17.40;79.30;;;;;;4783254;29;20502;-75
2023/05/12 13:01:00;;;;;;;17.60;8.68;;;17.40;79.20;;;;;;4809454;29;20125;-74
2023/05/12 13:03:26;;;;;;;8.55;6.10;;;17.40;79.40;;;;;;4810077;29;20092;-74
2023/05/12 13:05:52;;;;;;;14.02;6.70;;;17.40;79.20;;;;;;4797938;29;20054;-76
2023/05/12 13:08:18;;;;;;;20.65;8.63;;;17.40;79.20;;;;;;4816441;29;20074;-78
2023/05/12 13:10:44;;;;;;;15.32;7.53;;;17.40;79.40;;;;;;4827955;29;20119;-75
2023/05/12 13:13:12;;;;;;;22.08;8.23;;;17.40;79.40;;;;;;4828175;29;20154;-75
2023/05/12 13:15:40;;;;;;;24.65;10.85;;;17.40;79.30;;;;;;4825470;29;21405;-76
2023/05/12 13:18:06;;;;;;;18.55;9.77;;;17.40;79.50;;;;;;4811567;29;20129;-76
2023/05/12 13:20:32;;;;;;;26.65;10.00;;;17.40;79.60;;;;;;4811960;29;20184;-72
2023/05/12 13:22:58;;;;;;;22.75;9.70;;;17.40;79.70;;;;;;4828167;29;20064;-73
2023/05/12 13:25:24;;;;;;;29.45;10.50;;;17.40;79.70;;;;;;4827368;29;20195;-72
2023/05/12 13:27:51;;;;;;;18.67;9.35;;;17.40;79.80;;;;;;4815395;29;20054;-73
2023/05/12 13:30:16;;;;;;;33.00;13.18;;;17.40;79.80;;;;;;4810386;29;20462;-73
2023/05/12 13:32:42;;;;;;;23.10;10.13;;;17.50;79.90;;;;;;4785201;29;20054;-74
2023/05/12 13:35:08;;;;;;;35.05;13.07;;;17.50;79.90;;;;;;4820558;29;20050;-73
2023/05/12 13:37:34;;;;;;;32.13;10.45;;;17.50;80.10;;;;;;4810066;29;20360;-72
2023/05/12 13:40:00;;;;;;;22.35;10.27;;;17.50;80.10;;;;;;4819214;29;20065;-72
2023/05/12 13:42:26;;;;;;;30.80;10.60;;;17.50;80.00;;;;;;4809960;29;20109;-73
2023/05/12 13:44:52;;;;;;;25.40;10.48;;;17.50;79.90;;;;;;4827020;29;20378;-74
2023/05/12 13:47:18;;;;;;;30.92;11.50;;;17.50;80.00;;;;;;4811004;29;20069;-71
2023/05/12 13:49:44;;;;;;;26.83;11.52;;;17.50;80.00;;;;;;4821254;29;20117;-73
2023/05/12 13:52:09;;;;;;;28.70;11.90;;;17.50;79.90;;;;;;4821776;29;20061;-72
2023/05/12 13:54:35;;;;;;;36.17;11.68;;;17.60;79.90;;;;;;4827685;29;20458;-72
2023/05/12 13:57:02;;;;;;;38.38;12.43;;;17.50;79.90;;;;;;4826978;29;20138;-72
2023/05/12 13:59:29;;;;;;;24.98;12.32;;;17.60;80.20;;;;;;4827159;29;20054;-74
2023/05/12 14:01:56;;;;;;;24.95;11.18;;;17.60;80.20;;;;;;4827435;29;20400;-72
2023/05/12 14:04:21;;;;;;;28.08;11.45;;;17.60;80.10;;;;;;4811361;29;20047;-72
2023/05/12 14:06:47;;;;;;;26.30;12.68;;;17.60;80.00;;;;;;4811568;29;20359;-71
2023/05/12 14:09:13;;;;;;;21.58;10.02;;;17.60;80.00;;;;;;4804801;29;20054;-72
2023/05/12 14:11:38;;;;;;;29.50;11.65;;;17.60;79.80;;;;;;4826913;29;20088;-71
2023/05/12 14:14:05;;;;;;;28.27;11.35;;;17.60;80.00;;;;;;4827035;29;20058;-72
2023/05/12 14:16:31;;;;;;;22.15;10.40;;;17.60;80.10;;;;;;4826679;29;20199;-72
2023/05/12 14:18:58;;;;;;;24.33;9.98;;;17.60;80.20;;;;;;4795710;29;20114;-70
2023/05/12 14:21:25;;;;;;;23.75;9.07;;;17.60;80.30;;;;;;4826586;29;20090;-72
2023/05/12 14:23:50;;;;;;;32.05;10.07;;;17.60;80.90;;;;;;4826828;29;20046;-71
2023/05/12 14:26:16;;;;;;;22.27;9.10;;;17.60;80.30;;;;;;4809943;29;20046;-71
2023/05/12 14:28:42;;;;;;;17.05;8.23;;;17.60;80.30;;;;;;4808449;29;20065;-72
2023/05/12 14:31:08;;;;;;;14.13;8.18;;;17.60;80.30;;;;;;4808776;29;20133;-72
2023/05/12 14:33:34;;;;;;;18.92;7.55;;;17.60;80.30;;;;;;4808159;29;20050;-73
2023/05/12 14:36:00;;;;;;;24.90;8.95;;;17.60;80.30;;;;;;4814180;29;20050;-73
2023/05/12 14:38:25;;;;;;;16.55;8.35;;;17.60;80.20;;;;;;4825859;29;20046;-74
2023/05/12 14:40:51;;;;;;;8.45;5.95;;;17.60;80.00;;;;;;4826841;29;20050;-73
2023/05/12 14:43:17;;;;;;;13.57;7.13;;;17.60;79.80;;;;;;4826639;29;20054;-73
2023/05/12 14:45:46;;;;;;;9.80;6.65;;;17.60;79.50;;;;;;4826725;29;20092;-71
2023/05/12 14:48:12;;;;;;;9.85;6.15;;;17.60;79.50;;;;;;4794758;29;20058;-73
2023/05/12 14:50:40;;;;;;;10.20;6.20;;;17.60;79.40;;;;;;4808136;29;20055;-75
2023/05/12 14:53:06;;;;;;;7.05;5.72;;;17.60;79.30;;;;;;4808847;29;20123;-72
2023/05/12 14:55:32;;;;;;;14.77;6.93;;;17.60;79.10;;;;;;4808755;29;20047;-72
2023/05/12 14:57:58;;;;;;;15.95;6.55;;;17.60;79.00;;;;;;4804957;29;20058;-75
2023/05/12 15:00:23;;;;;;;33.13;9.90;;;17.60;79.00;;;;;;4809849;29;20081;-73
2023/05/12 15:02:49;;;;;;;28.83;8.80;;;17.70;79.20;;;;;;4826195;29;20062;-72
2023/05/12 15:05:15;;;;;;;28.27;8.95;;;17.70;79.40;;;;;;4826351;29;20050;-70
2023/05/12 15:07:41;;;;;;;24.40;7.70;;;17.70;79.60;;;;;;4803675;29;20054;-72
2023/05/12 15:10:07;;;;;;;20.38;7.78;;;17.70;79.50;;;;;;4824867;29;20046;-77
2023/05/12 15:12:33;;;;;;;17.85;7.10;;;17.70;79.40;;;;;;4810128;29;20050;-77
2023/05/12 15:15:00;;;;;;;22.98;8.25;;;17.70;79.50;;;;;;4817987;29;20093;-74
2023/05/12 15:17:27;;;;;;;26.77;7.90;;;17.70;79.60;;;;;;4807781;29;20043;-72
2023/05/12 15:19:54;;;;;;;38.10;21.00;;;17.80;79.80;;;;;;4807769;29;20050;-71
2023/05/12 15:22:19;;;;;;;27.13;17.42;;;17.80;80.10;;;;;;4782940;29;20059;-75
2023/05/12 15:24:45;;;;;;;27.67;15.32;;;17.80;80.60;;;;;;4790514;29;20055;-70
2023/05/12 15:27:11;;;;;;;29.52;12.70;;;17.90;81.00;;;;;;4773906;30;20066;-77
2023/05/12 15:29:38;;;;;;;16.13;9.07;;;17.90;81.50;;;;;;4799969;29;20382;-72
2023/05/12 15:32:04;;;;;;;21.27;11.18;;;18.00;81.30;;;;;;4791720;29;20459;-73
2023/05/12 15:34:29;;;;;;;17.17;8.73;;;18.00;82.00;;;;;;4791828;29;20078;-73
2023/05/12 15:36:55;;;;;;;15.55;8.73;;;18.00;81.60;;;;;;4790076;29;20054;-73
2023/05/12 15:39:21;;;;;;;18.38;8.30;;;18.00;81.50;;;;;;4790086;30;20136;-73
2023/05/12 15:41:49;;;;;;;16.40;8.77;;;18.00;81.40;;;;;;4789704;29;20062;-72
2023/05/12 15:44:15;;;;;;;17.88;7.00;;;18.00;81.50;;;;;;4803147;29;20395;-73
2023/05/12 15:46:41;;;;;;;15.80;7.47;;;18.10;81.60;;;;;;4807413;29;20054;-73
2023/05/12 15:49:07;;;;;;;23.95;7.88;;;18.10;81.60;;;;;;4791651;29;20058;-73
2023/05/12 15:51:35;;;;;;;24.40;8.65;;;18.10;81.70;;;;;;4807451;29;20066;-72
2023/05/12 15:54:04;;;;;;;26.05;8.32;;;18.10;81.70;;;;;;4795795;29;20055;-72
2023/05/12 15:56:30;;;;;;;24.95;8.32;;;18.10;81.80;;;;;;4789921;29;20445;-72
2023/05/12 15:58:56;;;;;;;37.28;9.30;;;18.10;81.80;;;;;;4789425;29;20059;-73
2023/05/12 16:01:22;;;;;;;45.10;10.10;;;18.10;82.00;;;;;;4806268;29;20047;-72
2023/05/12 16:03:52;;;;;;;23.10;7.38;;;18.20;82.00;;;;;;4807510;29;20055;-72
2023/05/12 16:06:19;;;;;;;20.42;7.97;;;18.20;81.90;;;;;;4808051;29;20058;-72
2023/05/12 16:08:45;;;;;;;21.58;7.55;;;18.20;81.70;;;;;;4807576;29;20116;-72
2023/05/12 16:11:11;;;;;;;15.10;7.55;;;18.20;81.20;;;;;;4791318;29;20083;-73
2023/05/12 16:13:37;;;;;;;18.27;7.68;;;18.20;80.90;;;;;;4789374;30;20043;-72
2023/05/12 16:16:04;;;;;;;19.73;8.20;;;18.20;80.60;;;;;;4789756;29;20070;-72
2023/05/12 16:18:30;;;;;;;14.23;7.20;;;18.20;80.40;;;;;;4789503;30;20475;-72
2023/05/12 16:20:57;;;;;;;17.55;7.30;;;18.20;80.20;;;;;;4802868;29;20070;-72
2023/05/12 16:23:23;;;;;;;16.48;6.90;;;18.30;80.20;;;;;;4808209;29;20058;-73
2023/05/12 16:25:50;;;;;;;14.90;7.00;;;18.30;80.00;;;;;;4807503;29;20047;-73
2023/05/12 16:28:16;;;;;;;13.90;6.85;;;18.30;79.90;;;;;;4807711;29;20061;-72
2023/05/12 16:30:41;;;;;;;15.10;7.15;;;18.30;79.80;;;;;;4795240;29;20056;-72
2023/05/12 16:33:07;;;;;;;15.73;6.80;;;18.30;79.80;;;;;;4789573;29;20383;-72
2023/05/12 16:35:33;;;;;;;14.23;6.65;;;18.30;79.50;;;;;;4793047;29;20510;-78
2023/05/12 16:37:59;;;;;;;10.75;7.07;;;18.30;79.40;;;;;;4792676;30;20090;-75
2023/05/12 16:40:25;;;;;;;14.70;7.40;;;18.40;79.30;;;;;;4792656;29;20468;-75
2023/05/12 16:42:51;;;;;;;12.07;7.57;;;18.40;78.90;;;;;;4777296;30;20047;-73
2023/05/12 16:45:17;;;;;;;8.73;7.13;;;18.40;78.70;;;;;;4792160;30;20051;-73
2023/05/12 16:47:43;;;;;;;12.57;8.23;;;18.50;78.40;;;;;;4792201;29;20065;-73
2023/05/12 16:50:09;;;;;;;15.43;8.68;;;18.50;77.90;;;;;;4798993;29;20047;-75
2023/05/12 16:52:34;;;;;;;19.85;9.25;;;18.50;77.80;;;;;;4810282;29;20445;-74
2023/05/12 16:55:00;;;;;;;23.67;9.65;;;18.50;77.60;;;;;;4809871;29;20138;-74
2023/05/12 16:57:26;;;;;;;28.80;10.35;;;18.50;77.80;;;;;;4810007;29;20467;-73
2023/05/12 16:59:51;;;;;;;26.23;11.07;;;18.60;77.90;;;;;;4810424;29;20047;-74
2023/05/12 17:02:17;;;;;;;24.98;9.65;;;18.60;78.10;;;;;;4800359;29;20466;-73
2023/05/12 17:04:43;;;;;;;19.42;9.18;;;18.60;78.20;;;;;;4779073;29;20051;-74
2023/05/12 17:07:09;;;;;;;26.00;9.00;;;18.60;78.50;;;;;;4776202;30;20060;-75
2023/05/12 17:09:35;;;;;;;26.67;8.95;;;18.60;78.60;;;;;;4776208;30;20055;-73
2023/05/12 17:12:03;;;;;;;25.75;8.82;;;18.60;79.20;;;;;;4791519;30;20047;-73
2023/05/12 17:14:29;;;;;;;20.15;8.27;;;18.60;78.60;;;;;;4779921;29;20482;-73
2023/05/12 17:16:54;;;;;;;26.75;8.02;;;18.60;78.60;;;;;;4815433;29;20054;-74
2023/05/12 17:19:20;;;;;;;16.77;7.30;;;18.60;78.60;;;;;;4827949;29;20055;-74
2023/05/12 17:21:47;;;;;;;18.90;7.35;;;18.60;78.60;;;;;;4827843;29;20061;-74
2023/05/12 17:24:13;;;;;;;12.38;6.45;;;18.60;78.60;;;;;;4828051;29;20146;-75
2023/05/12 17:26:38;;;;;;;16.27;7.20;;;18.60;78.60;;;;;;4827958;29;20129;-74
2023/05/12 17:29:04;;;;;;;13.45;6.65;;;18.60;78.60;;;;;;4820099;29;20062;-73
2023/05/12 17:31:30;;;;;;;17.80;6.80;;;18.60;78.60;;;;;;4817660;29;20050;-73
2023/05/12 17:33:55;;;;;;;12.65;6.28;;;18.60;78.70;;;;;;4827999;29;20344;-73
2023/05/12 17:36:22;;;;;;;13.05;6.82;;;18.60;78.70;;;;;;4811947;29;20074;-74
2023/05/12 17:38:49;;;;;;;14.52;6.60;;;18.60;78.80;;;;;;4827320;29;20050;-75
2023/05/12 17:41:15;;;;;;;9.30;5.50;;;18.60;78.80;;;;;;4794351;29;20051;-75
2023/05/12 17:43:41;;;;;;;11.35;6.35;;;18.60;79.00;;;;;;4809643;29;20470;-74
2023/05/12 17:46:07;;;;;;;10.25;5.57;;;18.50;79.00;;;;;;4808834;29;20137;-74